createdAt,value
2019-01-18T00:00:36.834Z,80.71
2019-01-18T00:03:03.663Z,79.83
2019-01-18T00:05:30.441Z,80.58
2019-01-18T00:07:57.224Z,82.70
2019-01-18T00:10:24.034Z,82.51
2019-01-18T00:12:50.981Z,83.30
2019-01-18T00:15:17.766Z,83.02
2019-01-18T00:17:44.556Z,83.64
2019-01-18T00:20:11.382Z,83.75
2019-01-18T00:22:38.142Z,83.26
2019-01-18T00:25:05.254Z,83.06
2019-01-18T00:27:32.017Z,83.66
2019-01-18T00:30:00.083Z,83.24
2019-01-18T00:32:27.039Z,83.29
2019-01-18T00:34:53.837Z,82.72
2019-01-18T00:37:20.620Z,82.66
2019-01-18T00:39:47.915Z,82.57
2019-01-18T00:42:14.645Z,81.48
2019-01-18T00:44:41.444Z,81.90
2019-01-18T00:47:08.908Z,80.87
2019-01-18T00:49:35.693Z,82.20
2019-01-18T00:52:02.462Z,82.81
2019-01-18T00:54:29.510Z,82.90
2019-01-18T00:56:56.771Z,82.44
2019-01-18T00:59:23.565Z,80.22
2019-01-18T01:01:51.155Z,81.79
2019-01-18T01:04:17.992Z,81.80
2019-01-18T01:06:44.783Z,81.14
2019-01-18T01:09:13.286Z,81.48
2019-01-18T01:11:40.045Z,82.80
2019-01-18T01:14:06.834Z,83.22
2019-01-18T01:16:33.657Z,83.56
2019-01-18T01:19:00.440Z,83.57
2019-01-18T01:21:27.285Z,83.65
2019-01-18T01:23:54.097Z,83.87
2019-01-18T01:26:21.508Z,83.89
2019-01-18T01:28:48.264Z,83.93
2019-01-18T01:31:16.710Z,83.67
2019-01-18T01:33:43.340Z,83.94
2019-01-18T01:36:10.117Z,83.56
2019-01-18T01:38:36.972Z,83.16
2019-01-18T01:41:03.770Z,83.96
2019-01-18T01:43:30.540Z,83.12
2019-01-18T01:45:57.353Z,82.50
2019-01-18T01:48:24.204Z,82.75
2019-01-18T01:50:51.541Z,82.77
2019-01-18T01:53:18.369Z,83.28
2019-01-18T01:55:45.108Z,83.37
2019-01-18T01:58:11.878Z,83.25
2019-01-18T02:00:38.725Z,83.07
2019-01-18T02:03:05.609Z,83.46
2019-01-18T02:05:32.388Z,82.93
2019-01-18T02:07:59.181Z,83.20
2019-01-18T02:10:26.532Z,83.79
2019-01-18T02:12:55.293Z,83.91
2019-01-18T02:15:24.406Z,84.40
2019-01-18T02:17:51.337Z,83.99
2019-01-18T02:20:20.452Z,84.04
2019-01-18T02:22:47.017Z,83.98
2019-01-18T02:25:13.818Z,84.43
2019-01-18T02:27:40.565Z,84.52
2019-01-18T02:30:10.640Z,84.79
2019-01-18T02:32:37.699Z,84.25
2019-01-18T02:35:04.951Z,84.86
2019-01-18T02:37:31.741Z,83.81
2019-01-18T02:39:58.543Z,84.11
2019-01-18T02:42:25.310Z,84.20
2019-01-18T02:44:52.089Z,83.07
2019-01-18T02:47:18.985Z,82.92
2019-01-18T02:49:45.765Z,82.55
2019-01-18T02:52:12.532Z,81.58
2019-01-18T02:54:40.152Z,81.70
2019-01-18T02:57:06.882Z,82.18
2019-01-18T02:59:33.653Z,83.28
2019-01-18T03:02:00.537Z,83.89
2019-01-18T03:04:27.285Z,84.55
2019-01-18T03:06:54.470Z,84.33
2019-01-18T03:09:21.212Z,84.50
2019-01-18T03:11:47.993Z,84.91
2019-01-18T03:14:14.889Z,86.29
2019-01-18T03:16:41.687Z,85.74
2019-01-18T03:19:08.464Z,85.92
2019-01-18T03:21:35.248Z,86.07
2019-01-18T03:24:03.298Z,86.39
2019-01-18T03:26:28.823Z,85.95
2019-01-18T03:28:55.620Z,86.67
2019-01-18T03:31:22.410Z,87.65
2019-01-18T03:33:49.154Z,86.75
2019-01-18T03:36:15.986Z,85.19
2019-01-18T03:38:42.758Z,85.74
2019-01-18T03:41:09.546Z,85.27
2019-01-18T03:43:36.289Z,85.76
2019-01-18T03:46:03.270Z,86.37
2019-01-18T03:48:30.033Z,86.06
2019-01-18T03:50:56.885Z,86.42
2019-01-18T03:53:23.776Z,87.00
2019-01-18T03:55:50.565Z,87.07
2019-01-18T03:58:17.331Z,86.35
2019-01-18T04:00:46.350Z,86.22
2019-01-18T04:03:13.121Z,86.08
2019-01-18T04:05:39.898Z,86.07
2019-01-18T04:08:06.686Z,86.11
2019-01-18T04:10:34.843Z,86.33
2019-01-18T04:13:02.289Z,87.34
2019-01-18T04:15:29.069Z,88.10
2019-01-18T04:17:56.641Z,89.00
2019-01-18T04:20:23.457Z,89.00
2019-01-18T04:22:50.274Z,88.18
2019-01-18T04:25:19.383Z,88.11
2019-01-18T04:27:46.150Z,88.17
2019-01-18T04:30:15.196Z,88.97
2019-01-18T04:32:42.060Z,89.70
2019-01-18T04:35:09.370Z,90.04
2019-01-18T04:37:36.192Z,90.09
2019-01-18T04:40:03.865Z,90.93
2019-01-18T04:42:30.662Z,90.64
2019-01-18T04:44:57.733Z,91.43
2019-01-18T04:47:24.493Z,90.64
2019-01-18T04:49:51.253Z,90.27
2019-01-18T04:52:18.046Z,90.54
2019-01-18T04:54:44.832Z,90.79
2019-01-18T04:57:11.646Z,90.12
2019-01-18T04:59:38.414Z,90.93
2019-01-18T05:02:05.194Z,90.46
2019-01-18T05:04:32.534Z,89.96
2019-01-18T05:06:59.488Z,89.81
2019-01-18T05:09:26.225Z,89.94
2019-01-18T05:11:53.029Z,90.03
2019-01-18T05:14:19.813Z,89.33
2019-01-18T05:16:46.633Z,90.02
2019-01-18T05:19:14.575Z,89.52
2019-01-18T05:21:41.381Z,90.45
2019-01-18T05:24:08.737Z,89.65
2019-01-18T05:26:35.593Z,90.13
2019-01-18T05:29:02.427Z,90.85
2019-01-18T05:31:29.196Z,90.57
2019-01-18T05:33:55.994Z,90.68
2019-01-18T05:36:22.796Z,91.19
2019-01-18T05:38:49.570Z,91.23
2019-01-18T05:41:16.342Z,90.46
2019-01-18T05:43:43.138Z,90.84
2019-01-18T05:46:09.889Z,90.17
2019-01-18T05:48:37.652Z,89.92
2019-01-18T05:51:04.954Z,89.72
2019-01-18T05:53:31.766Z,90.02
2019-01-18T05:55:58.970Z,90.35
2019-01-18T05:58:25.749Z,90.55
2019-01-18T06:00:59.744Z,90.94
2019-01-18T06:03:26.533Z,90.37
2019-01-18T06:05:53.398Z,91.38
2019-01-18T06:08:20.233Z,91.28
2019-01-18T06:10:46.993Z,90.65
2019-01-18T06:13:14.006Z,90.64
2019-01-18T06:15:40.760Z,90.78
2019-01-18T06:18:07.569Z,90.53
2019-01-18T06:20:34.330Z,90.90
2019-01-18T06:23:01.667Z,90.57
2019-01-18T06:25:28.466Z,91.12
2019-01-18T06:27:55.369Z,89.83
2019-01-18T06:30:22.093Z,89.62
2019-01-18T06:32:48.885Z,87.78
2019-01-18T06:35:15.672Z,88.04
2019-01-18T06:37:42.488Z,87.11
2019-01-18T06:40:10.954Z,87.59
2019-01-18T06:42:37.758Z,88.75
2019-01-18T06:45:05.766Z,89.97
2019-01-18T06:47:32.553Z,89.25
2019-01-18T06:49:59.380Z,90.07
2019-01-18T06:52:26.167Z,90.45
2019-01-18T06:54:52.924Z,90.23
2019-01-18T06:57:19.700Z,91.01
2019-01-18T06:59:46.489Z,90.83
2019-01-18T07:02:13.252Z,91.22
2019-01-18T07:04:41.477Z,91.72
2019-01-18T07:07:06.817Z,91.76
2019-01-18T07:09:33.618Z,91.09
2019-01-18T07:12:00.385Z,91.05
2019-01-18T07:14:27.205Z,92.25
2019-01-18T07:16:53.970Z,92.09
2019-01-18T07:19:20.769Z,90.54
2019-01-18T07:21:47.538Z,91.53
2019-01-18T07:24:15.059Z,90.73
2019-01-18T07:26:41.793Z,90.79
2019-01-18T07:29:08.587Z,91.59
2019-01-18T07:31:35.360Z,91.41
2019-01-18T07:34:02.161Z,91.36
2019-01-18T07:36:28.940Z,91.13
2019-01-18T07:39:00.483Z,92.39
2019-01-18T07:41:22.500Z,91.73
2019-01-18T07:43:49.306Z,91.85
2019-01-18T07:46:16.088Z,92.50
2019-01-18T07:48:42.889Z,92.38
2019-01-18T07:51:09.669Z,92.91
2019-01-18T07:53:36.471Z,91.32
2019-01-18T07:56:03.229Z,91.71
2019-01-18T07:58:31.211Z,91.58
2019-01-18T08:00:57.961Z,90.72
2019-01-18T08:03:24.777Z,91.06
2019-01-18T08:05:51.536Z,90.29
2019-01-18T08:08:18.411Z,91.03
2019-01-18T08:10:45.329Z,91.24
2019-01-18T08:13:12.076Z,90.81
2019-01-18T08:15:39.316Z,90.99
2019-01-18T08:18:06.729Z,90.95
2019-01-18T08:20:33.533Z,90.50
2019-01-18T08:23:01.688Z,89.53
2019-01-18T08:25:29.475Z,88.19
2019-01-18T08:27:56.479Z,87.97
2019-01-18T08:30:25.265Z,87.65
2019-01-18T08:32:52.029Z,87.76
2019-01-18T08:35:19.793Z,87.68
2019-01-18T08:37:46.622Z,87.30
2019-01-18T08:40:16.025Z,86.91
2019-01-18T08:42:42.810Z,85.54
2019-01-18T08:45:13.201Z,85.83
2019-01-18T08:47:39.989Z,86.11
2019-01-18T08:50:10.077Z,87.19
2019-01-18T08:52:36.862Z,88.37
2019-01-18T08:55:03.685Z,88.61
2019-01-18T08:57:33.286Z,87.89
2019-01-18T09:00:00.181Z,88.01
2019-01-18T09:02:26.931Z,87.97
2019-01-18T09:04:53.770Z,86.71
2019-01-18T09:07:20.606Z,86.01
2019-01-18T09:09:47.400Z,85.85
2019-01-18T09:12:14.192Z,84.94
2019-01-18T09:14:41.010Z,84.31
2019-01-18T09:17:07.785Z,83.99
2019-01-18T09:19:34.589Z,84.10
2019-01-18T09:22:01.357Z,84.04
2019-01-18T09:24:28.327Z,83.91
2019-01-18T09:26:55.141Z,85.18
2019-01-18T09:29:21.923Z,83.68
2019-01-18T09:31:48.676Z,84.77
2019-01-18T09:34:16.073Z,84.46
2019-01-18T09:36:42.836Z,84.37
2019-01-18T09:39:09.622Z,83.88
2019-01-18T09:41:36.393Z,83.41
2019-01-18T09:44:03.203Z,81.06
2019-01-18T09:46:29.970Z,79.67
2019-01-18T09:48:56.764Z,80.20
2019-01-18T09:51:23.533Z,79.92
2019-01-18T09:53:50.312Z,80.44
2019-01-18T09:56:17.069Z,79.54
2019-01-18T09:58:43.832Z,78.92
2019-01-18T10:01:10.660Z,77.24
2019-01-18T10:03:37.439Z,77.69
2019-01-18T10:06:04.212Z,77.00
2019-01-18T10:08:30.972Z,77.93
2019-01-18T10:10:57.765Z,77.63
2019-01-18T10:13:24.543Z,77.16
2019-01-18T10:15:51.305Z,75.66
2019-01-18T10:18:18.082Z,76.17
2019-01-18T10:20:44.893Z,73.79
2019-01-18T10:23:11.669Z,73.25
2019-01-18T10:25:38.452Z,73.12
2019-01-18T10:28:05.221Z,72.81
2019-01-18T10:30:32.008Z,72.26
2019-01-18T10:32:58.768Z,72.57
2019-01-18T10:35:25.669Z,71.61
2019-01-18T10:37:52.430Z,72.08
2019-01-18T10:40:19.208Z,72.56
2019-01-18T10:42:46.229Z,71.41
2019-01-18T10:45:13.240Z,69.66
2019-01-18T10:47:40.008Z,68.80
2019-01-18T10:50:09.736Z,68.66
2019-01-18T10:52:37.521Z,70.10
2019-01-18T10:55:04.436Z,70.29
2019-01-18T10:57:31.210Z,70.53
2019-01-18T10:59:57.989Z,69.50
2019-01-18T11:02:24.741Z,69.84
2019-01-18T11:04:51.513Z,69.25
2019-01-18T11:07:18.332Z,67.94
2019-01-18T11:09:45.105Z,67.73
2019-01-18T11:12:11.872Z,66.98
2019-01-18T11:14:38.717Z,67.18
2019-01-18T11:17:05.521Z,67.38
2019-01-18T11:19:32.397Z,68.86
2019-01-18T11:21:59.172Z,68.39
2019-01-18T11:24:25.956Z,67.56
2019-01-18T11:26:52.754Z,66.36
2019-01-18T11:29:19.526Z,64.48
2019-01-18T11:31:46.334Z,64.52
2019-01-18T11:34:13.097Z,63.02
2019-01-18T11:36:39.893Z,63.27
2019-01-18T11:39:06.890Z,63.33
2019-01-18T11:41:33.679Z,62.48
2019-01-18T11:44:00.449Z,62.27
2019-01-18T11:46:27.265Z,62.91
2019-01-18T11:48:54.020Z,64.61
2019-01-18T11:51:20.805Z,65.26
2019-01-18T11:53:47.588Z,64.52
2019-01-18T11:56:14.585Z,61.86
2019-01-18T11:58:41.349Z,61.02
2019-01-18T12:01:08.157Z,63.04
2019-01-18T12:03:34.938Z,64.08
2019-01-18T12:06:01.754Z,65.51
2019-01-18T12:08:28.526Z,65.49
2019-01-18T12:10:55.337Z,64.32
2019-01-18T12:13:22.108Z,66.41
2019-01-18T12:15:48.897Z,66.86
2019-01-18T12:18:15.669Z,66.56
2019-01-18T12:20:42.449Z,66.78
2019-01-18T12:23:09.226Z,64.93
2019-01-18T12:25:36.004Z,66.64
2019-01-18T12:28:03.007Z,66.17
2019-01-18T12:30:32.245Z,65.16
2019-01-18T12:32:59.021Z,66.44
2019-01-18T12:35:25.804Z,67.29
2019-01-18T12:37:52.581Z,66.45
2019-01-18T12:40:19.376Z,67.90
2019-01-18T12:42:46.153Z,67.32
2019-01-18T12:45:15.033Z,69.87
2019-01-18T12:47:41.833Z,67.63
2019-01-18T12:50:16.170Z,66.90
2019-01-18T12:52:42.956Z,65.69
2019-01-18T12:55:09.747Z,66.72
2019-01-18T12:57:36.580Z,68.93
2019-01-18T13:00:05.833Z,69.98
2019-01-18T13:02:35.476Z,67.67
2019-01-18T13:05:00.485Z,68.21
2019-01-18T13:07:32.857Z,69.29
2019-01-18T13:10:00.731Z,67.20
2019-01-18T13:12:27.590Z,66.54
2019-01-18T13:14:57.284Z,68.20
2019-01-18T13:17:24.642Z,67.60
2019-01-18T13:19:52.505Z,69.45
2019-01-18T13:22:19.283Z,68.24
2019-01-18T13:24:46.069Z,68.33
2019-01-18T13:27:12.921Z,68.95
2019-01-18T13:29:39.706Z,70.47
2019-01-18T13:32:09.917Z,67.80
2019-01-18T13:34:36.733Z,66.87
2019-01-18T13:37:03.588Z,67.87
2019-01-18T13:39:30.466Z,70.00
2019-01-18T13:41:57.448Z,67.65
2019-01-18T13:44:24.225Z,69.19
2019-01-18T13:46:51.021Z,68.75
2019-01-18T13:49:17.806Z,69.32
2019-01-18T13:51:46.255Z,68.85
2019-01-18T13:54:11.423Z,68.72
2019-01-18T13:56:38.241Z,68.23
2019-01-18T13:59:05.024Z,68.04
2019-01-18T14:01:31.889Z,67.43
2019-01-18T14:03:58.662Z,67.29
2019-01-18T14:06:26.345Z,65.52
2019-01-18T14:08:53.121Z,66.94
2019-01-18T14:11:19.930Z,68.27
2019-01-18T14:13:46.712Z,68.88
2019-01-18T14:16:13.496Z,69.89
2019-01-18T14:18:40.313Z,70.02
2019-01-18T14:21:07.100Z,69.55
2019-01-18T14:23:34.049Z,69.75
2019-01-18T14:26:00.896Z,69.82
2019-01-18T14:28:27.751Z,70.42
2019-01-18T14:30:54.557Z,70.79
2019-01-18T14:33:21.350Z,69.96
2019-01-18T14:35:48.175Z,70.15
2019-01-18T14:38:14.973Z,69.46
2019-01-18T14:40:42.177Z,69.01
2019-01-18T14:43:09.066Z,70.17
2019-01-18T14:45:38.708Z,70.95
2019-01-18T14:48:05.517Z,69.80
2019-01-18T14:50:32.308Z,70.19
2019-01-18T14:53:00.201Z,70.99
2019-01-18T14:55:26.912Z,74.59
2019-01-18T14:57:53.721Z,78.64
2019-01-18T15:00:22.873Z,79.42
2019-01-18T15:02:49.837Z,80.11
2019-01-18T15:05:16.609Z,80.71
2019-01-18T15:07:43.412Z,81.68
2019-01-18T15:10:12.170Z,82.35
2019-01-18T15:12:38.974Z,82.44
2019-01-18T15:15:07.890Z,80.06
2019-01-18T15:17:34.756Z,78.83
2019-01-18T15:20:01.534Z,79.41
2019-01-18T15:22:28.317Z,78.48
2019-01-18T15:24:55.173Z,78.99
2019-01-18T15:27:22.046Z,77.72
2019-01-18T15:29:49.100Z,79.42
2019-01-18T15:32:15.889Z,80.44
2019-01-18T15:34:42.668Z,79.16
2019-01-18T15:37:09.437Z,81.03
2019-01-18T15:39:37.294Z,82.02
2019-01-18T15:42:04.070Z,79.99
2019-01-18T15:44:30.904Z,78.17
2019-01-18T15:46:57.664Z,79.22
2019-01-18T15:49:24.445Z,76.61
2019-01-18T15:51:51.205Z,77.27
2019-01-18T15:54:17.967Z,76.99
2019-01-18T15:56:44.724Z,76.77
2019-01-18T15:59:11.508Z,77.46
2019-01-18T16:01:38.262Z,78.52
2019-01-18T16:04:05.016Z,79.07
2019-01-18T16:06:31.748Z,79.95
2019-01-18T16:08:58.508Z,80.66
2019-01-18T16:11:25.256Z,80.48
2019-01-18T16:13:52.008Z,81.05
2019-01-18T16:16:26.461Z,81.37
2019-01-18T16:18:54.256Z,81.30
2019-01-18T16:21:21.029Z,81.56
2019-01-18T16:23:47.785Z,82.34
2019-01-18T16:26:14.515Z,82.88
2019-01-18T16:28:41.300Z,82.96
2019-01-18T16:31:10.066Z,80.67
2019-01-18T16:33:36.748Z,79.58
2019-01-18T16:36:03.598Z,80.84
2019-01-18T16:38:30.364Z,82.49
2019-01-18T16:40:57.104Z,83.68
2019-01-18T16:43:29.140Z,84.13
2019-01-18T16:45:55.882Z,82.24
2019-01-18T16:48:22.672Z,82.69
2019-01-18T16:50:49.460Z,82.54
2019-01-18T16:53:16.224Z,83.07
2019-01-18T16:55:43.325Z,83.48
2019-01-18T16:58:11.331Z,83.69
2019-01-18T17:00:39.380Z,83.18
2019-01-18T17:03:06.141Z,83.19
2019-01-18T17:05:32.898Z,82.44
2019-01-18T17:07:59.643Z,83.63
2019-01-18T17:10:26.573Z,83.76
2019-01-18T17:12:53.308Z,84.57
2019-01-18T17:15:21.488Z,83.07
2019-01-18T17:17:48.220Z,81.72
2019-01-18T17:20:17.804Z,81.56
2019-01-18T17:22:44.573Z,81.87
2019-01-18T17:25:11.335Z,82.06
2019-01-18T17:27:38.093Z,82.16
2019-01-18T17:30:06.316Z,80.80
2019-01-18T17:32:33.048Z,79.05
2019-01-18T17:34:59.816Z,80.69
2019-01-18T17:37:31.413Z,81.24
2019-01-18T17:40:11.196Z,82.43
2019-01-18T17:43:07.424Z,81.74
2019-01-18T17:45:53.856Z,80.89
2019-01-18T17:48:49.661Z,81.43
2019-01-18T17:51:26.868Z,82.13
2019-01-18T17:54:05.338Z,81.65
2019-01-18T17:57:02.557Z,81.23
2019-01-18T17:59:55.653Z,81.93
2019-01-18T18:02:31.233Z,81.69
2019-01-18T18:05:09.421Z,82.48
2019-01-18T18:07:58.060Z,81.92
2019-01-18T18:10:51.332Z,83.37
2019-01-18T18:13:28.996Z,82.94
2019-01-18T18:16:05.244Z,83.52
2019-01-18T18:18:50.632Z,83.21
2019-01-18T18:21:43.229Z,82.95
2019-01-18T18:24:44.356Z,82.67
2019-01-18T18:27:46.653Z,83.75
2019-01-18T18:30:33.023Z,83.32
2019-01-18T18:33:24.023Z,83.55
2019-01-18T18:36:16.580Z,82.23
2019-01-18T18:38:54.236Z,83.67
2019-01-18T18:41:32.615Z,84.01
2019-01-18T18:44:15.800Z,85.45
2019-01-18T18:47:09.900Z,85.70
2019-01-18T18:49:51.981Z,86.81
2019-01-18T18:52:46.842Z,85.47
2019-01-18T18:55:24.965Z,85.75
2019-01-18T18:58:11.849Z,83.60
2019-01-18T19:00:54.357Z,84.79
2019-01-18T19:04:04.048Z,83.64
2019-01-18T19:07:08.322Z,82.32
2019-01-18T19:10:04.792Z,83.66
2019-01-18T19:12:56.964Z,85.46
2019-01-18T19:15:50.597Z,85.00
2019-01-18T19:18:32.178Z,85.98
2019-01-18T19:21:19.599Z,85.28
2019-01-18T19:24:27.208Z,86.32
2019-01-18T19:27:32.123Z,84.54
2019-01-18T19:30:42.864Z,85.74
2019-01-18T19:33:22.496Z,88.45
2019-01-18T19:36:13.597Z,88.58
2019-01-18T19:38:58.507Z,87.94
2019-01-18T19:41:38.913Z,88.92
2019-01-18T19:44:22.588Z,88.38
2019-01-18T19:47:13.402Z,88.57
2019-01-18T19:50:09.859Z,87.86
2019-01-18T19:53:02.928Z,86.66
2019-01-18T19:55:58.184Z,85.84
2019-01-18T19:58:56.469Z,86.61
2019-01-18T20:01:50.707Z,86.27
2019-01-18T20:04:36.153Z,87.02
2019-01-18T20:07:15.129Z,86.42
2019-01-18T20:09:52.736Z,86.85
2019-01-18T20:12:36.125Z,88.08
2019-01-18T20:15:17.373Z,88.13
2019-01-18T20:18:09.497Z,86.79
2019-01-18T20:21:01.168Z,86.66
2019-01-18T20:23:39.517Z,86.46
2019-01-18T20:26:14.940Z,86.48
2019-01-18T20:29:12.892Z,87.16
2019-01-18T20:32:12.980Z,86.09
2019-01-18T20:35:07.777Z,86.29
2019-01-18T20:37:48.812Z,86.57
2019-01-18T20:40:37.620Z,85.18
2019-01-18T20:43:23.472Z,86.38
2019-01-18T20:46:05.780Z,86.06
2019-01-18T20:49:06.420Z,87.09
2019-01-18T20:51:49.557Z,86.91
2019-01-18T20:54:40.351Z,87.09
2019-01-18T20:57:19.480Z,88.59
2019-01-18T20:59:58.650Z,87.96
2019-01-18T21:02:41.179Z,87.74
2019-01-18T21:05:20.548Z,86.58
2019-01-18T21:07:59.696Z,86.96
2019-01-18T21:10:43.289Z,85.87
2019-01-18T21:13:38.238Z,88.24
2019-01-18T21:16:46.208Z,87.16
2019-01-18T21:19:23.431Z,88.73
2019-01-18T21:22:01.896Z,88.53
2019-01-18T21:24:46.182Z,87.83
2019-01-18T21:27:40.881Z,88.71
2019-01-18T21:30:19.178Z,87.49
2019-01-18T21:33:01.408Z,88.49
2019-01-18T21:35:37.294Z,87.57
2019-01-18T21:38:32.214Z,87.69
2019-01-18T21:41:11.297Z,88.97
2019-01-18T21:44:08.377Z,88.60
2019-01-18T21:47:00.245Z,88.13
2019-01-18T21:49:37.572Z,89.72
2019-01-18T21:52:16.107Z,88.95
2019-01-18T21:54:51.336Z,88.13
2019-01-18T21:57:36.572Z,89.58
2019-01-18T22:00:35.633Z,88.36
2019-01-18T22:03:43.521Z,87.27
2019-01-18T22:06:44.246Z,89.39
2019-01-18T22:09:37.724Z,88.87
2019-01-18T22:12:39.503Z,88.04
2019-01-18T22:15:18.877Z,89.48
2019-01-18T22:18:16.364Z,88.45
2019-01-18T22:21:06.344Z,86.81
2019-01-18T22:23:39.325Z,88.30
2019-01-18T22:26:17.612Z,87.47
2019-01-18T22:29:11.469Z,87.81
2019-01-18T22:31:48.784Z,88.82
2019-01-18T22:34:29.927Z,87.77
2019-01-18T22:37:19.124Z,88.00
2019-01-18T22:39:57.034Z,87.26
2019-01-18T22:42:34.832Z,88.11
2019-01-18T22:45:27.695Z,87.90
2019-01-18T22:48:11.713Z,86.29
2019-01-18T22:50:46.877Z,88.30
2019-01-18T22:53:25.660Z,87.30
2019-01-18T22:55:58.468Z,86.84
2019-01-18T22:58:57.852Z,88.57
2019-01-18T23:01:36.701Z,87.67
2019-01-18T23:04:19.292Z,87.09
2019-01-18T23:07:06.115Z,86.99
2019-01-18T23:09:51.432Z,87.94
2019-01-18T23:12:28.448Z,87.61
2019-01-18T23:15:14.999Z,87.07
2019-01-18T23:17:54.014Z,87.27
2019-01-18T23:20:48.100Z,86.93
2019-01-18T23:23:33.729Z,86.21
2019-01-18T23:26:44.476Z,87.63
2019-01-18T23:29:16.072Z,87.70
2019-01-18T23:31:54.412Z,86.58
2019-01-18T23:34:32.222Z,88.67
2019-01-18T23:37:13.948Z,88.00
2019-01-18T23:39:57.964Z,87.41
2019-01-18T23:42:39.836Z,88.21
2019-01-18T23:45:35.936Z,87.25
2019-01-18T23:48:30.268Z,87.33
2019-01-18T23:51:13.619Z,88.54
2019-01-18T23:53:53.296Z,88.34
2019-01-18T23:56:53.443Z,87.97
2019-01-18T23:59:39.373Z,89.95
